Carlisle, IA (50047)

8:03 AM CDT on August 21, 2014 (GMT -0500)
Keith & Patty's Pleasant Hill Weather | Change Station
CLOSE
Current Station
Personal Weather Station
Location: Pleasant Hill, IA
Elevation: 922 ft
Nearby Weather Stations

Elev 922 ft 41.58 °N, 93.50 °W | Updated 3 minutes ago

Overcast
Overcast
75.8 °F
Feels Like 76 °F
N
3.0
Wind Variable Wind from NW
Gusts 4.0 mph

Today
High -- | Low -- °F
--% Chance of Precip.
Yesterday
High -- | Low -- °F
Precip. -- in
6:28 AM 8:04 PM
Waning Crescent, 14% visible
Pressure 29.81 in
Visibility 10.0 miles
Clouds Few 7500 ft
Few 9500 ft
Mostly Cloudy 17000 ft
Overcast 25000 ft
Heat Index 76 °F
Dew Point 71 °F
Humidity 86%
Rainfall 0.00 in
Snow Depth Not available.
UV 0 out of 12
Pollen 7.80 out of 12
Air Quality Not available.
Flu Activity Not available.
METAR KDSM 211254Z COR 22011KT 10SM FEW075TCU FEW095 BKN170 OVC250 26/21 A2983 RMK AO2 SLP093 OCNL LTGIC DSNT E AND DSNT W-NW CB DSNT E AND DSNT W-NW MOV NE TCU NE AND DSNT S T02560206

More Conditions Fewer Conditions

Pressure 29.81 in
Visibility 10.0 miles
Clouds Few 7500 ft
Few 9500 ft
Mostly Cloudy 17000 ft
Overcast 25000 ft
Heat Index 76 °F
Dew Point 71 °F
Humidity 86%
Rainfall 0.00 in
Snow Depth Not available.
UV 0 out of 12
Pollen 7.80 out of 12
Air Quality Not available.
Flu Activity Not available.
METAR KDSM 211254Z COR 22011KT 10SM FEW075TCU FEW095 BKN170 OVC250 26/21 A2983 RMK AO2 SLP093 OCNL LTGIC DSNT E AND DSNT W-NW CB DSNT E AND DSNT W-NW MOV NE TCU NE AND DSNT S T02560206

More Conditions Fewer Conditions

10-Day Weather Forecast

Almanac

Astronomy

Aug. 21, 2014 Rise Set
Actual Time 6:28 AM CDT 8:04 PM CDT
Civil Twilight 5:59 AM CDT 8:33 PM CDT
Nautical Twilight 5:24 AM CDT 9:08 PM CDT
Astronomical Twilight 4:46 AM CDT 9:46 PM CDT
Moon 2:58 AM CDT 5:34 PM CDT
Length of Visible Light 14h 33m
Length of Day
13h 35m
Tomorrow will be 2m 34s shorter.
Waning Crescent, 14% of the Moon is Illuminated
Today
Waning Crescent
Aug 25
New
Sep 2
First Quarter
Sep 8
Full
Sep 15
Last Quarter

Today's Extremes

State Highs State Lows

Community

WunderPhotos

Upload Photos

1,745,905 photos uploaded!

WunderBlogs® & News

By Dr. Jeff Masters
Director of Meteorology, Weather Underground
By Kari Strenfel
Meteorologist, Weather Underground
By Christopher C. Burt
Weather Historian, Weather Underground
August 21, 2014
August 21, 2014
August 21, 2014

Nearby

Snow Depth

Station Depth Elevation
No new snow has been reported.

Earthquake Activity

City Distance Mag. Time & Date
No recent earthquake activity has been reported nearby.
Minimum magnitude displayed is 2.5.

Coastal Water Temperatures

Place Temperature
No Stations Reporting

Nearby Weather Stations